sensor_id;sensor_type;location;lat;lon;timestamp;P1;durP1;ratioP1;P2;durP2;ratioP2
42906;SDS011;28552;51.146;6.576;2022-08-19T00:01:24;10.10;;;5.03;;
42906;SDS011;28552;51.146;6.576;2022-08-19T00:04:28;10.32;;;5.50;;
42906;SDS011;28552;51.146;6.576;2022-08-19T00:07:31;9.57;;;4.95;;
42906;SDS011;28552;51.146;6.576;2022-08-19T00:10:31;10.48;;;4.88;;
42906;SDS011;28552;51.146;6.576;2022-08-19T00:13:33;8.15;;;4.68;;
42906;SDS011;28552;51.146;6.576;2022-08-19T00:16:34;10.20;;;4.68;;
42906;SDS011;28552;51.146;6.576;2022-08-19T00:19:36;10.73;;;5.43;;
42906;SDS011;28552;51.146;6.576;2022-08-19T00:22:38;10.93;;;5.22;;
42906;SDS011;28552;51.146;6.576;2022-08-19T00:25:40;10.38;;;5.35;;
42906;SDS011;28552;51.146;6.576;2022-08-19T00:28:41;10.88;;;6.18;;
42906;SDS011;28552;51.146;6.576;2022-08-19T00:31:42;9.40;;;5.28;;
42906;SDS011;28552;51.146;6.576;2022-08-19T00:34:43;10.88;;;5.75;;
42906;SDS011;28552;51.146;6.576;2022-08-19T00:37:43;10.55;;;5.85;;
42906;SDS011;28552;51.146;6.576;2022-08-19T00:40:44;9.52;;;5.75;;
42906;SDS011;28552;51.146;6.576;2022-08-19T00:47:07;9.98;;;6.05;;
42906;SDS011;28552;51.146;6.576;2022-08-19T00:50:08;10.13;;;5.43;;
42906;SDS011;28552;51.146;6.576;2022-08-19T00:53:11;10.70;;;5.90;;
42906;SDS011;28552;51.146;6.576;2022-08-19T00:56:14;13.30;;;6.78;;
42906;SDS011;28552;51.146;6.576;2022-08-19T00:59:16;11.00;;;6.10;;
42906;SDS011;28552;51.146;6.576;2022-08-19T01:02:18;10.48;;;5.68;;
42906;SDS011;28552;51.146;6.576;2022-08-19T01:05:21;14.95;;;7.03;;
42906;SDS011;28552;51.146;6.576;2022-08-19T01:08:27;12.50;;;6.72;;
42906;SDS011;28552;51.146;6.576;2022-08-19T01:11:28;14.32;;;6.72;;
42906;SDS011;28552;51.146;6.576;2022-08-19T01:14:31;12.30;;;6.25;;
42906;SDS011;28552;51.146;6.576;2022-08-19T01:17:33;12.23;;;6.63;;
42906;SDS011;28552;51.146;6.576;2022-08-19T01:20:36;11.25;;;6.13;;
42906;SDS011;28552;51.146;6.576;2022-08-19T01:23:37;11.45;;;5.97;;
42906;SDS011;28552;51.146;6.576;2022-08-19T01:26:45;14.02;;;7.90;;
42906;SDS011;28552;51.146;6.576;2022-08-19T01:29:46;15.90;;;8.43;;
42906;SDS011;28552;51.146;6.576;2022-08-19T01:32:48;15.25;;;9.27;;
42906;SDS011;28552;51.146;6.576;2022-08-19T01:35:49;15.00;;;7.60;;
42906;SDS011;28552;51.146;6.576;2022-08-19T01:38:51;16.55;;;8.88;;
42906;SDS011;28552;51.146;6.576;2022-08-19T01:41:52;19.85;;;9.88;;
42906;SDS011;28552;51.146;6.576;2022-08-19T01:44:54;16.70;;;9.23;;
42906;SDS011;28552;51.146;6.576;2022-08-19T01:47:55;17.90;;;8.90;;
42906;SDS011;28552;51.146;6.576;2022-08-19T01:50:56;20.70;;;9.80;;
42906;SDS011;28552;51.146;6.576;2022-08-19T01:53:57;18.88;;;9.32;;
42906;SDS011;28552;51.146;6.576;2022-08-19T01:57:01;18.35;;;10.35;;
42906;SDS011;28552;51.146;6.576;2022-08-19T02:00:05;19.55;;;10.15;;
42906;SDS011;28552;51.146;6.576;2022-08-19T02:03:10;16.13;;;9.13;;
42906;SDS011;28552;51.146;6.576;2022-08-19T02:06:11;16.45;;;8.45;;
42906;SDS011;28552;51.146;6.576;2022-08-19T02:09:12;19.90;;;8.77;;
42906;SDS011;28552;51.146;6.576;2022-08-19T02:12:12;21.50;;;9.40;;
42906;SDS011;28552;51.146;6.576;2022-08-19T02:15:14;16.95;;;8.10;;
42906;SDS011;28552;51.146;6.576;2022-08-19T02:18:15;15.70;;;8.05;;
42906;SDS011;28552;51.146;6.576;2022-08-19T02:21:16;13.95;;;7.95;;
42906;SDS011;28552;51.146;6.576;2022-08-19T02:24:17;17.83;;;9.13;;
42906;SDS011;28552;51.146;6.576;2022-08-19T02:27:18;17.92;;;9.18;;
42906;SDS011;28552;51.146;6.576;2022-08-19T02:30:19;17.42;;;9.30;;
42906;SDS011;28552;51.146;6.576;2022-08-19T02:33:20;20.20;;;9.68;;
42906;SDS011;28552;51.146;6.576;2022-08-19T02:36:21;21.67;;;10.05;;
42906;SDS011;28552;51.146;6.576;2022-08-19T02:39:22;19.50;;;10.52;;
42906;SDS011;28552;51.146;6.576;2022-08-19T02:42:22;22.63;;;12.35;;
42906;SDS011;28552;51.146;6.576;2022-08-19T02:45:23;20.02;;;10.93;;
42906;SDS011;28552;51.146;6.576;2022-08-19T02:48:24;26.23;;;11.77;;
42906;SDS011;28552;51.146;6.576;2022-08-19T02:51:28;25.90;;;12.30;;
42906;SDS011;28552;51.146;6.576;2022-08-19T02:54:31;28.98;;;14.55;;
42906;SDS011;28552;51.146;6.576;2022-08-19T02:57:31;27.55;;;14.32;;
42906;SDS011;28552;51.146;6.576;2022-08-19T03:00:32;28.85;;;14.20;;
42906;SDS011;28552;51.146;6.576;2022-08-19T03:03:33;32.92;;;14.35;;
42906;SDS011;28552;51.146;6.576;2022-08-19T03:06:35;31.77;;;16.38;;
42906;SDS011;28552;51.146;6.576;2022-08-19T03:09:37;27.73;;;13.27;;
42906;SDS011;28552;51.146;6.576;2022-08-19T03:12:38;29.38;;;14.35;;
42906;SDS011;28552;51.146;6.576;2022-08-19T03:15:40;33.38;;;15.15;;
42906;SDS011;28552;51.146;6.576;2022-08-19T03:18:43;31.10;;;14.85;;
42906;SDS011;28552;51.146;6.576;2022-08-19T03:21:43;28.65;;;15.15;;
42906;SDS011;28552;51.146;6.576;2022-08-19T03:24:44;31.55;;;16.13;;
42906;SDS011;28552;51.146;6.576;2022-08-19T03:27:45;34.90;;;16.50;;
42906;SDS011;28552;51.146;6.576;2022-08-19T03:34:06;35.92;;;16.67;;
42906;SDS011;28552;51.146;6.576;2022-08-19T03:37:09;30.50;;;15.73;;
42906;SDS011;28552;51.146;6.576;2022-08-19T03:40:12;35.20;;;15.55;;
42906;SDS011;28552;51.146;6.576;2022-08-19T03:43:13;34.33;;;16.10;;
42906;SDS011;28552;51.146;6.576;2022-08-19T03:46:15;33.60;;;15.63;;
42906;SDS011;28552;51.146;6.576;2022-08-19T03:49:23;31.17;;;14.48;;
42906;SDS011;28552;51.146;6.576;2022-08-19T03:52:26;36.22;;;15.10;;
42906;SDS011;28552;51.146;6.576;2022-08-19T03:55:27;32.70;;;15.38;;
42906;SDS011;28552;51.146;6.576;2022-08-19T03:58:28;32.42;;;15.15;;
42906;SDS011;28552;51.146;6.576;2022-08-19T04:01:29;29.80;;;14.40;;
42906;SDS011;28552;51.146;6.576;2022-08-19T04:04:30;31.42;;;15.63;;
42906;SDS011;28552;51.146;6.576;2022-08-19T04:07:30;32.15;;;15.38;;
42906;SDS011;28552;51.146;6.576;2022-08-19T04:10:38;34.60;;;16.20;;
42906;SDS011;28552;51.146;6.576;2022-08-19T04:13:40;34.30;;;16.83;;
42906;SDS011;28552;51.146;6.576;2022-08-19T04:16:43;29.98;;;14.57;;
42906;SDS011;28552;51.146;6.576;2022-08-19T04:19:44;36.08;;;15.25;;
42906;SDS011;28552;51.146;6.576;2022-08-19T04:22:45;32.80;;;14.32;;
42906;SDS011;28552;51.146;6.576;2022-08-19T04:25:45;30.88;;;14.27;;
42906;SDS011;28552;51.146;6.576;2022-08-19T04:28:46;29.33;;;13.40;;
42906;SDS011;28552;51.146;6.576;2022-08-19T04:31:46;30.25;;;14.10;;
42906;SDS011;28552;51.146;6.576;2022-08-19T04:34:47;31.65;;;15.75;;
42906;SDS011;28552;51.146;6.576;2022-08-19T04:37:48;28.65;;;13.10;;
42906;SDS011;28552;51.146;6.576;2022-08-19T04:40:49;31.80;;;15.05;;
42906;SDS011;28552;51.146;6.576;2022-08-19T04:44:06;37.33;;;16.48;;
42906;SDS011;28552;51.146;6.576;2022-08-19T04:47:07;34.47;;;15.93;;
42906;SDS011;28552;51.146;6.576;2022-08-19T04:50:08;35.08;;;16.10;;
42906;SDS011;28552;51.146;6.576;2022-08-19T04:53:11;30.90;;;14.80;;
42906;SDS011;28552;51.146;6.576;2022-08-19T04:56:13;32.60;;;14.95;;
42906;SDS011;28552;51.146;6.576;2022-08-19T04:59:15;37.13;;;17.48;;
42906;SDS011;28552;51.146;6.576;2022-08-19T05:02:18;37.85;;;16.90;;
42906;SDS011;28552;51.146;6.576;2022-08-19T05:05:19;40.50;;;17.55;;
42906;SDS011;28552;51.146;6.576;2022-08-19T05:08:20;41.25;;;17.45;;
42906;SDS011;28552;51.146;6.576;2022-08-19T05:11:23;37.83;;;17.67;;
42906;SDS011;28552;51.146;6.576;2022-08-19T05:14:25;38.30;;;17.13;;
42906;SDS011;28552;51.146;6.576;2022-08-19T05:17:26;38.40;;;17.30;;
42906;SDS011;28552;51.146;6.576;2022-08-19T05:20:27;40.42;;;18.42;;
42906;SDS011;28552;51.146;6.576;2022-08-19T05:23:43;40.95;;;17.08;;
42906;SDS011;28552;51.146;6.576;2022-08-19T05:26:45;35.88;;;16.75;;
42906;SDS011;28552;51.146;6.576;2022-08-19T05:29:47;35.80;;;16.17;;
42906;SDS011;28552;51.146;6.576;2022-08-19T05:32:47;41.45;;;17.25;;
42906;SDS011;28552;51.146;6.576;2022-08-19T05:35:48;33.53;;;14.70;;
42906;SDS011;28552;51.146;6.576;2022-08-19T05:38:49;37.28;;;17.23;;
42906;SDS011;28552;51.146;6.576;2022-08-19T05:41:51;37.95;;;17.10;;
42906;SDS011;28552;51.146;6.576;2022-08-19T05:44:56;36.50;;;14.52;;
42906;SDS011;28552;51.146;6.576;2022-08-19T05:47:57;33.80;;;14.82;;
42906;SDS011;28552;51.146;6.576;2022-08-19T05:51:02;36.38;;;16.35;;
42906;SDS011;28552;51.146;6.576;2022-08-19T05:54:06;31.88;;;14.32;;
42906;SDS011;28552;51.146;6.576;2022-08-19T05:57:08;34.35;;;15.45;;
42906;SDS011;28552;51.146;6.576;2022-08-19T06:00:10;32.75;;;14.23;;
42906;SDS011;28552;51.146;6.576;2022-08-19T06:03:11;31.77;;;13.93;;
42906;SDS011;28552;51.146;6.576;2022-08-19T06:06:13;34.47;;;14.88;;
42906;SDS011;28552;51.146;6.576;2022-08-19T06:09:14;32.15;;;14.40;;
42906;SDS011;28552;51.146;6.576;2022-08-19T06:12:15;36.00;;;15.23;;
42906;SDS011;28552;51.146;6.576;2022-08-19T06:15:16;36.65;;;14.15;;
42906;SDS011;28552;51.146;6.576;2022-08-19T06:18:16;29.50;;;14.32;;
42906;SDS011;28552;51.146;6.576;2022-08-19T06:21:20;34.85;;;14.52;;
42906;SDS011;28552;51.146;6.576;2022-08-19T06:24:22;30.30;;;14.25;;
42906;SDS011;28552;51.146;6.576;2022-08-19T06:27:24;35.40;;;14.13;;
42906;SDS011;28552;51.146;6.576;2022-08-19T06:30:25;34.67;;;14.82;;
42906;SDS011;28552;51.146;6.576;2022-08-19T06:33:26;28.75;;;13.25;;
42906;SDS011;28552;51.146;6.576;2022-08-19T06:36:27;30.17;;;13.77;;
42906;SDS011;28552;51.146;6.576;2022-08-19T06:39:35;34.30;;;15.60;;
42906;SDS011;28552;51.146;6.576;2022-08-19T06:42:38;32.90;;;16.20;;
42906;SDS011;28552;51.146;6.576;2022-08-19T06:45:39;31.30;;;14.77;;
42906;SDS011;28552;51.146;6.576;2022-08-19T06:48:39;37.70;;;15.35;;
42906;SDS011;28552;51.146;6.576;2022-08-19T06:51:41;32.30;;;14.25;;
42906;SDS011;28552;51.146;6.576;2022-08-19T06:54:43;40.03;;;17.08;;
42906;SDS011;28552;51.146;6.576;2022-08-19T06:57:43;37.35;;;15.38;;
42906;SDS011;28552;51.146;6.576;2022-08-19T07:00:46;37.50;;;16.38;;
42906;SDS011;28552;51.146;6.576;2022-08-19T07:03:46;36.42;;;16.77;;
42906;SDS011;28552;51.146;6.576;2022-08-19T07:06:47;37.70;;;16.55;;
42906;SDS011;28552;51.146;6.576;2022-08-19T07:09:49;36.20;;;16.13;;
42906;SDS011;28552;51.146;6.576;2022-08-19T07:12:53;41.22;;;18.38;;
42906;SDS011;28552;51.146;6.576;2022-08-19T07:15:53;43.22;;;18.35;;
42906;SDS011;28552;51.146;6.576;2022-08-19T07:18:54;41.45;;;19.17;;
42906;SDS011;28552;51.146;6.576;2022-08-19T07:21:56;46.17;;;19.70;;
42906;SDS011;28552;51.146;6.576;2022-08-19T07:24:59;49.83;;;19.58;;
42906;SDS011;28552;51.146;6.576;2022-08-19T07:28:00;49.50;;;20.17;;
42906;SDS011;28552;51.146;6.576;2022-08-19T07:31:01;46.17;;;20.05;;
42906;SDS011;28552;51.146;6.576;2022-08-19T07:34:04;48.22;;;19.63;;
42906;SDS011;28552;51.146;6.576;2022-08-19T07:37:07;47.67;;;21.02;;
42906;SDS011;28552;51.146;6.576;2022-08-19T07:40:08;48.65;;;19.55;;
42906;SDS011;28552;51.146;6.576;2022-08-19T07:43:09;49.20;;;19.95;;
42906;SDS011;28552;51.146;6.576;2022-08-19T07:46:09;43.90;;;18.67;;
42906;SDS011;28552;51.146;6.576;2022-08-19T07:49:12;44.65;;;19.38;;
42906;SDS011;28552;51.146;6.576;2022-08-19T07:52:18;40.70;;;17.13;;
42906;SDS011;28552;51.146;6.576;2022-08-19T07:55:22;42.75;;;17.85;;
42906;SDS011;28552;51.146;6.576;2022-08-19T07:58:24;37.53;;;16.77;;
42906;SDS011;28552;51.146;6.576;2022-08-19T08:01:25;35.90;;;15.27;;
42906;SDS011;28552;51.146;6.576;2022-08-19T08:04:28;37.42;;;15.95;;
42906;SDS011;28552;51.146;6.576;2022-08-19T08:07:44;35.45;;;15.32;;
42906;SDS011;28552;51.146;6.576;2022-08-19T08:11:00;35.88;;;15.57;;
42906;SDS011;28552;51.146;6.576;2022-08-19T08:14:01;30.38;;;13.23;;
42906;SDS011;28552;51.146;6.576;2022-08-19T08:17:02;32.92;;;14.10;;
42906;SDS011;28552;51.146;6.576;2022-08-19T08:20:04;33.72;;;14.23;;
42906;SDS011;28552;51.146;6.576;2022-08-19T08:23:07;36.30;;;13.68;;
42906;SDS011;28552;51.146;6.576;2022-08-19T08:26:22;28.25;;;12.10;;
42906;SDS011;28552;51.146;6.576;2022-08-19T08:29:25;30.75;;;12.10;;
42906;SDS011;28552;51.146;6.576;2022-08-19T08:32:27;28.50;;;11.25;;
42906;SDS011;28552;51.146;6.576;2022-08-19T08:35:27;25.27;;;10.55;;
42906;SDS011;28552;51.146;6.576;2022-08-19T08:38:28;21.33;;;9.38;;
42906;SDS011;28552;51.146;6.576;2022-08-19T08:44:43;25.27;;;11.05;;
42906;SDS011;28552;51.146;6.576;2022-08-19T08:47:54;20.42;;;9.65;;
42906;SDS011;28552;51.146;6.576;2022-08-19T08:50:58;23.38;;;10.18;;
42906;SDS011;28552;51.146;6.576;2022-08-19T08:54:05;22.35;;;10.38;;
42906;SDS011;28552;51.146;6.576;2022-08-19T08:57:10;21.13;;;9.15;;
42906;SDS011;28552;51.146;6.576;2022-08-19T09:00:17;19.00;;;9.13;;
42906;SDS011;28552;51.146;6.576;2022-08-19T09:03:33;18.77;;;8.57;;
42906;SDS011;28552;51.146;6.576;2022-08-19T09:09:40;19.15;;;8.68;;
42906;SDS011;28552;51.146;6.576;2022-08-19T09:16:02;14.15;;;6.97;;
42906;SDS011;28552;51.146;6.576;2022-08-19T09:19:07;20.05;;;8.13;;
42906;SDS011;28552;51.146;6.576;2022-08-19T09:22:08;15.80;;;7.88;;
42906;SDS011;28552;51.146;6.576;2022-08-19T09:25:10;18.55;;;8.07;;
42906;SDS011;28552;51.146;6.576;2022-08-19T09:28:13;17.50;;;7.82;;
42906;SDS011;28552;51.146;6.576;2022-08-19T09:31:15;14.45;;;6.93;;
42906;SDS011;28552;51.146;6.576;2022-08-19T09:34:18;12.88;;;6.28;;
42906;SDS011;28552;51.146;6.576;2022-08-19T09:37:20;11.80;;;5.47;;
42906;SDS011;28552;51.146;6.576;2022-08-19T09:40:22;14.63;;;5.90;;
42906;SDS011;28552;51.146;6.576;2022-08-19T09:43:23;13.90;;;6.28;;
42906;SDS011;28552;51.146;6.576;2022-08-19T09:46:26;15.10;;;5.63;;
42906;SDS011;28552;51.146;6.576;2022-08-19T09:49:30;11.95;;;5.55;;
42906;SDS011;28552;51.146;6.576;2022-08-19T09:52:31;16.17;;;6.45;;
42906;SDS011;28552;51.146;6.576;2022-08-19T09:55:31;15.10;;;6.15;;
42906;SDS011;28552;51.146;6.576;2022-08-19T09:58:32;14.07;;;6.28;;
42906;SDS011;28552;51.146;6.576;2022-08-19T10:01:34;14.48;;;6.97;;
42906;SDS011;28552;51.146;6.576;2022-08-19T10:04:35;18.88;;;7.90;;
42906;SDS011;28552;51.146;6.576;2022-08-19T10:07:50;18.65;;;7.82;;
42906;SDS011;28552;51.146;6.576;2022-08-19T10:10:51;16.95;;;8.15;;
42906;SDS011;28552;51.146;6.576;2022-08-19T10:13:52;14.05;;;6.72;;
42906;SDS011;28552;51.146;6.576;2022-08-19T10:16:53;15.98;;;6.78;;
42906;SDS011;28552;51.146;6.576;2022-08-19T10:19:54;12.13;;;6.10;;
42906;SDS011;28552;51.146;6.576;2022-08-19T10:22:54;15.82;;;7.10;;
42906;SDS011;28552;51.146;6.576;2022-08-19T10:25:55;14.93;;;8.00;;
42906;SDS011;28552;51.146;6.576;2022-08-19T10:29:00;13.77;;;5.97;;
42906;SDS011;28552;51.146;6.576;2022-08-19T10:32:01;15.68;;;6.40;;
42906;SDS011;28552;51.146;6.576;2022-08-19T10:35:05;14.43;;;7.25;;
42906;SDS011;28552;51.146;6.576;2022-08-19T10:38:07;13.45;;;6.00;;
42906;SDS011;28552;51.146;6.576;2022-08-19T10:41:09;11.15;;;6.30;;
42906;SDS011;28552;51.146;6.576;2022-08-19T10:44:12;12.93;;;5.60;;
42906;SDS011;28552;51.146;6.576;2022-08-19T10:47:13;11.35;;;5.40;;
42906;SDS011;28552;51.146;6.576;2022-08-19T10:50:15;10.88;;;5.32;;
42906;SDS011;28552;51.146;6.576;2022-08-19T10:53:30;9.95;;;4.82;;
42906;SDS011;28552;51.146;6.576;2022-08-19T10:56:31;12.07;;;5.25;;
42906;SDS011;28552;51.146;6.576;2022-08-19T10:59:48;10.10;;;5.10;;
42906;SDS011;28552;51.146;6.576;2022-08-19T11:02:48;14.73;;;5.15;;
42906;SDS011;28552;51.146;6.576;2022-08-19T11:05:57;12.20;;;6.20;;
42906;SDS011;28552;51.146;6.576;2022-08-19T11:08:59;10.48;;;5.50;;
42906;SDS011;28552;51.146;6.576;2022-08-19T11:12:00;13.40;;;5.88;;
42906;SDS011;28552;51.146;6.576;2022-08-19T11:15:00;10.02;;;4.85;;
42906;SDS011;28552;51.146;6.576;2022-08-19T11:18:01;11.43;;;5.45;;
42906;SDS011;28552;51.146;6.576;2022-08-19T11:21:06;12.77;;;6.35;;
42906;SDS011;28552;51.146;6.576;2022-08-19T11:24:09;10.80;;;4.70;;
42906;SDS011;28552;51.146;6.576;2022-08-19T11:27:12;11.00;;;5.07;;
42906;SDS011;28552;51.146;6.576;2022-08-19T11:30:12;12.55;;;5.93;;
42906;SDS011;28552;51.146;6.576;2022-08-19T11:33:14;11.20;;;4.60;;
42906;SDS011;28552;51.146;6.576;2022-08-19T11:36:15;9.00;;;4.55;;
42906;SDS011;28552;51.146;6.576;2022-08-19T11:39:17;10.05;;;4.85;;
42906;SDS011;28552;51.146;6.576;2022-08-19T11:42:20;10.55;;;4.70;;
42906;SDS011;28552;51.146;6.576;2022-08-19T11:45:36;11.13;;;4.82;;
42906;SDS011;28552;51.146;6.576;2022-08-19T11:48:36;8.80;;;4.80;;
42906;SDS011;28552;51.146;6.576;2022-08-19T11:51:38;9.05;;;4.00;;
42906;SDS011;28552;51.146;6.576;2022-08-19T11:54:39;9.77;;;3.90;;
42906;SDS011;28552;51.146;6.576;2022-08-19T11:57:39;10.77;;;3.92;;
42906;SDS011;28552;51.146;6.576;2022-08-19T12:00:41;10.77;;;4.43;;
42906;SDS011;28552;51.146;6.576;2022-08-19T12:03:45;12.27;;;4.55;;
42906;SDS011;28552;51.146;6.576;2022-08-19T12:06:47;14.00;;;4.50;;
42906;SDS011;28552;51.146;6.576;2022-08-19T12:09:49;11.00;;;5.00;;
42906;SDS011;28552;51.146;6.576;2022-08-19T12:12:50;7.82;;;3.90;;
42906;SDS011;28552;51.146;6.576;2022-08-19T12:15:51;7.40;;;3.63;;
42906;SDS011;28552;51.146;6.576;2022-08-19T12:18:53;8.90;;;4.63;;
42906;SDS011;28552;51.146;6.576;2022-08-19T12:21:58;8.68;;;4.28;;
42906;SDS011;28552;51.146;6.576;2022-08-19T12:24:59;7.68;;;3.65;;
42906;SDS011;28552;51.146;6.576;2022-08-19T12:28:00;6.18;;;3.22;;
42906;SDS011;28552;51.146;6.576;2022-08-19T12:31:02;5.90;;;2.97;;
42906;SDS011;28552;51.146;6.576;2022-08-19T12:34:03;5.90;;;2.55;;
42906;SDS011;28552;51.146;6.576;2022-08-19T12:37:04;5.68;;;2.90;;
42906;SDS011;28552;51.146;6.576;2022-08-19T12:40:05;7.30;;;2.95;;
42906;SDS011;28552;51.146;6.576;2022-08-19T12:43:07;8.55;;;4.07;;
42906;SDS011;28552;51.146;6.576;2022-08-19T12:46:08;8.38;;;3.78;;
42906;SDS011;28552;51.146;6.576;2022-08-19T12:49:08;7.25;;;3.65;;
42906;SDS011;28552;51.146;6.576;2022-08-19T12:52:10;6.68;;;3.38;;
42906;SDS011;28552;51.146;6.576;2022-08-19T12:55:10;10.35;;;3.88;;
42906;SDS011;28552;51.146;6.576;2022-08-19T12:58:12;6.28;;;2.72;;
42906;SDS011;28552;51.146;6.576;2022-08-19T13:01:13;5.55;;;2.35;;
42906;SDS011;28552;51.146;6.576;2022-08-19T13:04:15;5.45;;;3.03;;
42906;SDS011;28552;51.146;6.576;2022-08-19T13:07:16;4.97;;;2.40;;
42906;SDS011;28552;51.146;6.576;2022-08-19T13:10:18;6.05;;;2.58;;
42906;SDS011;28552;51.146;6.576;2022-08-19T13:13:19;8.73;;;2.60;;
42906;SDS011;28552;51.146;6.576;2022-08-19T13:16:20;5.43;;;2.60;;
42906;SDS011;28552;51.146;6.576;2022-08-19T13:19:21;5.20;;;2.50;;
42906;SDS011;28552;51.146;6.576;2022-08-19T13:22:23;6.25;;;2.22;;
42906;SDS011;28552;51.146;6.576;2022-08-19T13:25:24;4.90;;;2.38;;
42906;SDS011;28552;51.146;6.576;2022-08-19T13:28:25;5.18;;;2.60;;
42906;SDS011;28552;51.146;6.576;2022-08-19T13:31:27;5.32;;;2.20;;
42906;SDS011;28552;51.146;6.576;2022-08-19T13:34:43;4.60;;;2.03;;
42906;SDS011;28552;51.146;6.576;2022-08-19T13:37:46;5.03;;;2.20;;
42906;SDS011;28552;51.146;6.576;2022-08-19T13:40:48;5.35;;;2.60;;
42906;SDS011;28552;51.146;6.576;2022-08-19T13:43:50;7.18;;;2.20;;
42906;SDS011;28552;51.146;6.576;2022-08-19T13:46:50;6.30;;;2.92;;
42906;SDS011;28552;51.146;6.576;2022-08-19T13:49:53;4.32;;;2.17;;
42906;SDS011;28552;51.146;6.576;2022-08-19T13:52:54;4.47;;;2.10;;
42906;SDS011;28552;51.146;6.576;2022-08-19T13:55:55;6.80;;;2.10;;
42906;SDS011;28552;51.146;6.576;2022-08-19T13:58:56;3.88;;;1.90;;
42906;SDS011;28552;51.146;6.576;2022-08-19T14:01:57;3.70;;;1.67;;
42906;SDS011;28552;51.146;6.576;2022-08-19T14:04:59;5.53;;;1.65;;
42906;SDS011;28552;51.146;6.576;2022-08-19T14:08:00;3.95;;;1.70;;
42906;SDS011;28552;51.146;6.576;2022-08-19T14:11:00;3.95;;;1.70;;
42906;SDS011;28552;51.146;6.576;2022-08-19T14:14:01;4.60;;;1.70;;
42906;SDS011;28552;51.146;6.576;2022-08-19T14:17:01;4.32;;;1.63;;
42906;SDS011;28552;51.146;6.576;2022-08-19T14:20:07;4.30;;;1.85;;
42906;SDS011;28552;51.146;6.576;2022-08-19T14:23:09;7.03;;;1.52;;
42906;SDS011;28552;51.146;6.576;2022-08-19T14:26:13;5.05;;;1.98;;
42906;SDS011;28552;51.146;6.576;2022-08-19T14:29:15;3.63;;;1.65;;
42906;SDS011;28552;51.146;6.576;2022-08-19T14:32:16;5.13;;;2.30;;
42906;SDS011;28552;51.146;6.576;2022-08-19T14:35:17;5.25;;;2.00;;
42906;SDS011;28552;51.146;6.576;2022-08-19T14:38:18;4.53;;;2.00;;
42906;SDS011;28552;51.146;6.576;2022-08-19T14:41:20;3.63;;;1.90;;
42906;SDS011;28552;51.146;6.576;2022-08-19T14:44:22;4.38;;;2.00;;
42906;SDS011;28552;51.146;6.576;2022-08-19T14:47:22;4.57;;;2.15;;
42906;SDS011;28552;51.146;6.576;2022-08-19T14:50:23;4.50;;;2.00;;
42906;SDS011;28552;51.146;6.576;2022-08-19T14:53:23;4.05;;;1.80;;
42906;SDS011;28552;51.146;6.576;2022-08-19T14:56:26;5.75;;;1.95;;
42906;SDS011;28552;51.146;6.576;2022-08-19T14:59:27;4.90;;;1.80;;
42906;SDS011;28552;51.146;6.576;2022-08-19T15:02:28;4.57;;;1.90;;
42906;SDS011;28552;51.146;6.576;2022-08-19T15:05:28;6.53;;;2.70;;
42906;SDS011;28552;51.146;6.576;2022-08-19T15:08:29;4.80;;;2.53;;
42906;SDS011;28552;51.146;6.576;2022-08-19T15:11:31;5.18;;;2.50;;
42906;SDS011;28552;51.146;6.576;2022-08-19T15:14:35;5.05;;;2.33;;
42906;SDS011;28552;51.146;6.576;2022-08-19T15:17:37;5.10;;;2.08;;
42906;SDS011;28552;51.146;6.576;2022-08-19T15:20:39;5.80;;;2.50;;
42906;SDS011;28552;51.146;6.576;2022-08-19T15:23:40;4.78;;;2.33;;
42906;SDS011;28552;51.146;6.576;2022-08-19T15:26:41;5.13;;;2.20;;
42906;SDS011;28552;51.146;6.576;2022-08-19T15:29:42;4.50;;;1.90;;
42906;SDS011;28552;51.146;6.576;2022-08-19T15:32:46;4.25;;;2.00;;
42906;SDS011;28552;51.146;6.576;2022-08-19T15:35:46;3.53;;;1.55;;
42906;SDS011;28552;51.146;6.576;2022-08-19T15:38:49;6.32;;;1.70;;
42906;SDS011;28552;51.146;6.576;2022-08-19T15:41:52;4.95;;;2.03;;
42906;SDS011;28552;51.146;6.576;2022-08-19T15:44:52;4.95;;;1.63;;
42906;SDS011;28552;51.146;6.576;2022-08-19T15:47:53;4.05;;;1.70;;
42906;SDS011;28552;51.146;6.576;2022-08-19T15:50:53;3.83;;;1.80;;
42906;SDS011;28552;51.146;6.576;2022-08-19T15:53:54;3.67;;;1.63;;
42906;SDS011;28552;51.146;6.576;2022-08-19T15:56:54;5.28;;;1.90;;
42906;SDS011;28552;51.146;6.576;2022-08-19T16:00:10;4.25;;;1.65;;
42906;SDS011;28552;51.146;6.576;2022-08-19T16:03:26;4.15;;;1.50;;
42906;SDS011;28552;51.146;6.576;2022-08-19T16:06:43;3.85;;;1.50;;
42906;SDS011;28552;51.146;6.576;2022-08-19T16:09:44;2.88;;;1.27;;
42906;SDS011;28552;51.146;6.576;2022-08-19T16:12:44;3.08;;;1.20;;
42906;SDS011;28552;51.146;6.576;2022-08-19T16:15:45;3.45;;;1.25;;
42906;SDS011;28552;51.146;6.576;2022-08-19T16:18:45;3.25;;;1.38;;
42906;SDS011;28552;51.146;6.576;2022-08-19T16:21:48;3.63;;;1.77;;
42906;SDS011;28552;51.146;6.576;2022-08-19T16:24:51;4.00;;;1.80;;
42906;SDS011;28552;51.146;6.576;2022-08-19T16:27:52;3.55;;;1.50;;
42906;SDS011;28552;51.146;6.576;2022-08-19T16:30:53;4.38;;;2.00;;
42906;SDS011;28552;51.146;6.576;2022-08-19T16:33:54;3.55;;;1.38;;
42906;SDS011;28552;51.146;6.576;2022-08-19T16:36:55;3.78;;;1.85;;
42906;SDS011;28552;51.146;6.576;2022-08-19T16:39:55;6.25;;;1.63;;
42906;SDS011;28552;51.146;6.576;2022-08-19T16:42:56;3.80;;;1.60;;
42906;SDS011;28552;51.146;6.576;2022-08-19T16:45:56;3.40;;;1.63;;
42906;SDS011;28552;51.146;6.576;2022-08-19T16:48:57;3.47;;;1.50;;
42906;SDS011;28552;51.146;6.576;2022-08-19T16:51:58;4.82;;;2.13;;
42906;SDS011;28552;51.146;6.576;2022-08-19T16:54:58;3.95;;;1.88;;
42906;SDS011;28552;51.146;6.576;2022-08-19T16:57:59;4.22;;;1.73;;
42906;SDS011;28552;51.146;6.576;2022-08-19T17:01:04;4.25;;;1.65;;
42906;SDS011;28552;51.146;6.576;2022-08-19T17:04:06;6.10;;;2.83;;
42906;SDS011;28552;51.146;6.576;2022-08-19T17:07:08;4.80;;;1.42;;
42906;SDS011;28552;51.146;6.576;2022-08-19T17:10:09;3.70;;;1.67;;
42906;SDS011;28552;51.146;6.576;2022-08-19T17:13:10;3.58;;;1.55;;
42906;SDS011;28552;51.146;6.576;2022-08-19T17:16:14;2.75;;;1.13;;
42906;SDS011;28552;51.146;6.576;2022-08-19T17:19:16;3.28;;;1.38;;
42906;SDS011;28552;51.146;6.576;2022-08-19T17:22:17;2.88;;;1.17;;
42906;SDS011;28552;51.146;6.576;2022-08-19T17:25:17;2.50;;;1.10;;
42906;SDS011;28552;51.146;6.576;2022-08-19T17:28:19;2.92;;;1.15;;
42906;SDS011;28552;51.146;6.576;2022-08-19T17:31:26;4.72;;;1.30;;
42906;SDS011;28552;51.146;6.576;2022-08-19T17:34:29;3.00;;;1.48;;
42906;SDS011;28552;51.146;6.576;2022-08-19T17:37:29;6.03;;;1.70;;
42906;SDS011;28552;51.146;6.576;2022-08-19T17:40:30;3.60;;;1.75;;
42906;SDS011;28552;51.146;6.576;2022-08-19T17:43:32;2.65;;;1.13;;
42906;SDS011;28552;51.146;6.576;2022-08-19T17:46:34;2.65;;;1.33;;
42906;SDS011;28552;51.146;6.576;2022-08-19T17:49:35;5.05;;;1.42;;
42906;SDS011;28552;51.146;6.576;2022-08-19T17:52:36;2.95;;;1.38;;
42906;SDS011;28552;51.146;6.576;2022-08-19T17:55:37;4.20;;;1.20;;
42906;SDS011;28552;51.146;6.576;2022-08-19T17:58:38;2.40;;;1.13;;
42906;SDS011;28552;51.146;6.576;2022-08-19T18:01:41;4.10;;;1.75;;
42906;SDS011;28552;51.146;6.576;2022-08-19T18:04:43;3.50;;;1.52;;
42906;SDS011;28552;51.146;6.576;2022-08-19T18:07:43;4.32;;;1.70;;
42906;SDS011;28552;51.146;6.576;2022-08-19T18:10:44;2.80;;;1.30;;
42906;SDS011;28552;51.146;6.576;2022-08-19T18:13:45;3.10;;;1.30;;
42906;SDS011;28552;51.146;6.576;2022-08-19T18:16:45;4.88;;;1.58;;
42906;SDS011;28552;51.146;6.576;2022-08-19T18:19:46;3.03;;;1.38;;